sensor_id;sensor_type;location;lat;lon;timestamp;P1;durP1;ratioP1;P2;durP2;ratioP2
48522;SDS011;34315;50.150;11.070;2023-01-09T00:00:15;9.02;;;5.57;;
48522;SDS011;34315;50.150;11.070;2023-01-09T00:05:17;8.82;;;5.63;;
48522;SDS011;34315;50.150;11.070;2023-01-09T00:10:19;8.40;;;5.30;;
48522;SDS011;34315;50.150;11.070;2023-01-09T00:15:19;11.27;;;6.95;;
48522;SDS011;34315;50.150;11.070;2023-01-09T00:20:20;12.68;;;6.93;;
48522;SDS011;34315;50.150;11.070;2023-01-09T00:25:20;10.13;;;6.68;;
48522;SDS011;34315;50.150;11.070;2023-01-09T00:30:21;10.77;;;7.07;;
48522;SDS011;34315;50.150;11.070;2023-01-09T00:35:22;11.25;;;6.68;;
48522;SDS011;34315;50.150;11.070;2023-01-09T00:40:24;12.65;;;7.13;;
48522;SDS011;34315;50.150;11.070;2023-01-09T00:45:25;12.88;;;6.88;;
48522;SDS011;34315;50.150;11.070;2023-01-09T00:50:28;11.07;;;7.15;;
48522;SDS011;34315;50.150;11.070;2023-01-09T00:55:31;10.85;;;6.97;;
48522;SDS011;34315;50.150;11.070;2023-01-09T01:00:32;13.88;;;7.55;;
48522;SDS011;34315;50.150;11.070;2023-01-09T01:05:33;12.93;;;8.13;;
48522;SDS011;34315;50.150;11.070;2023-01-09T01:10:51;12.15;;;7.95;;
48522;SDS011;34315;50.150;11.070;2023-01-09T01:15:52;13.60;;;8.20;;
48522;SDS011;34315;50.150;11.070;2023-01-09T01:20:52;15.27;;;8.88;;
48522;SDS011;34315;50.150;11.070;2023-01-09T01:25:53;14.02;;;8.52;;
48522;SDS011;34315;50.150;11.070;2023-01-09T01:30:53;15.35;;;8.88;;
48522;SDS011;34315;50.150;11.070;2023-01-09T01:36:06;13.98;;;8.88;;
48522;SDS011;34315;50.150;11.070;2023-01-09T01:41:08;14.55;;;8.45;;
48522;SDS011;34315;50.150;11.070;2023-01-09T01:46:08;13.20;;;8.43;;
48522;SDS011;34315;50.150;11.070;2023-01-09T01:51:08;13.23;;;8.25;;
48522;SDS011;34315;50.150;11.070;2023-01-09T01:56:13;13.02;;;7.65;;
48522;SDS011;34315;50.150;11.070;2023-01-09T02:01:16;12.63;;;8.10;;
48522;SDS011;34315;50.150;11.070;2023-01-09T02:06:17;11.85;;;7.00;;
48522;SDS011;34315;50.150;11.070;2023-01-09T02:11:18;15.30;;;7.55;;
48522;SDS011;34315;50.150;11.070;2023-01-09T02:27:02;11.23;;;6.90;;
48522;SDS011;34315;50.150;11.070;2023-01-09T02:37:48;7.13;;;4.63;;
48522;SDS011;34315;50.150;11.070;2023-01-09T02:42:50;7.13;;;3.53;;
48522;SDS011;34315;50.150;11.070;2023-01-09T02:47:52;5.97;;;3.55;;
48522;SDS011;34315;50.150;11.070;2023-01-09T02:52:57;8.32;;;4.57;;
48522;SDS011;34315;50.150;11.070;2023-01-09T03:08:22;1.73;;;1.27;;
48522;SDS011;34315;50.150;11.070;2023-01-09T03:13:27;2.33;;;1.40;;
48522;SDS011;34315;50.150;11.070;2023-01-09T03:18:31;2.75;;;1.33;;
48522;SDS011;34315;50.150;11.070;2023-01-09T03:28:46;5.75;;;2.33;;
48522;SDS011;34315;50.150;11.070;2023-01-09T03:33:47;2.55;;;1.60;;
48522;SDS011;34315;50.150;11.070;2023-01-09T03:38:47;4.13;;;2.22;;
48522;SDS011;34315;50.150;11.070;2023-01-09T03:43:48;4.40;;;2.42;;
48522;SDS011;34315;50.150;11.070;2023-01-09T03:48:48;4.63;;;2.15;;
48522;SDS011;34315;50.150;11.070;2023-01-09T03:53:49;4.50;;;2.50;;
48522;SDS011;34315;50.150;11.070;2023-01-09T03:58:49;4.45;;;2.60;;
48522;SDS011;34315;50.150;11.070;2023-01-09T04:03:52;5.40;;;2.63;;
48522;SDS011;34315;50.150;11.070;2023-01-09T04:08:52;5.38;;;3.30;;
48522;SDS011;34315;50.150;11.070;2023-01-09T04:13:52;4.47;;;2.72;;
48522;SDS011;34315;50.150;11.070;2023-01-09T04:18:53;5.32;;;2.67;;
48522;SDS011;34315;50.150;11.070;2023-01-09T04:23:53;4.63;;;2.50;;
48522;SDS011;34315;50.150;11.070;2023-01-09T04:28:53;5.45;;;2.95;;
48522;SDS011;34315;50.150;11.070;2023-01-09T04:33:54;6.07;;;3.00;;
48522;SDS011;34315;50.150;11.070;2023-01-09T04:38:54;4.80;;;2.95;;
48522;SDS011;34315;50.150;11.070;2023-01-09T04:43:55;4.85;;;2.80;;
48522;SDS011;34315;50.150;11.070;2023-01-09T04:48:55;4.32;;;2.63;;
48522;SDS011;34315;50.150;11.070;2023-01-09T04:53:55;4.40;;;2.67;;
48522;SDS011;34315;50.150;11.070;2023-01-09T04:58:56;5.32;;;2.70;;
48522;SDS011;34315;50.150;11.070;2023-01-09T05:03:56;7.07;;;3.17;;
48522;SDS011;34315;50.150;11.070;2023-01-09T05:08:57;4.65;;;2.65;;
48522;SDS011;34315;50.150;11.070;2023-01-09T05:13:57;5.82;;;3.03;;
48522;SDS011;34315;50.150;11.070;2023-01-09T05:18:57;3.80;;;2.20;;
48522;SDS011;34315;50.150;11.070;2023-01-09T05:23:59;3.72;;;2.25;;
48522;SDS011;34315;50.150;11.070;2023-01-09T05:28:59;5.25;;;2.70;;
48522;SDS011;34315;50.150;11.070;2023-01-09T05:34:00;4.95;;;2.78;;
48522;SDS011;34315;50.150;11.070;2023-01-09T05:39:00;4.93;;;3.00;;
48522;SDS011;34315;50.150;11.070;2023-01-09T05:44:01;5.78;;;3.05;;
48522;SDS011;34315;50.150;11.070;2023-01-09T05:49:03;5.22;;;2.70;;
48522;SDS011;34315;50.150;11.070;2023-01-09T05:54:04;4.03;;;2.60;;
48522;SDS011;34315;50.150;11.070;2023-01-09T05:59:06;4.40;;;2.50;;
48522;SDS011;34315;50.150;11.070;2023-01-09T06:04:06;4.90;;;2.72;;
48522;SDS011;34315;50.150;11.070;2023-01-09T06:09:07;4.32;;;2.45;;
48522;SDS011;34315;50.150;11.070;2023-01-09T06:14:07;5.57;;;3.28;;
48522;SDS011;34315;50.150;11.070;2023-01-09T06:19:08;6.05;;;3.50;;
48522;SDS011;34315;50.150;11.070;2023-01-09T06:24:08;4.60;;;2.90;;
48522;SDS011;34315;50.150;11.070;2023-01-09T06:29:09;5.10;;;3.30;;
48522;SDS011;34315;50.150;11.070;2023-01-09T06:34:09;5.10;;;2.72;;
48522;SDS011;34315;50.150;11.070;2023-01-09T06:39:09;5.68;;;3.20;;
48522;SDS011;34315;50.150;11.070;2023-01-09T06:44:10;4.40;;;2.85;;
48522;SDS011;34315;50.150;11.070;2023-01-09T06:49:10;4.47;;;2.95;;
48522;SDS011;34315;50.150;11.070;2023-01-09T06:54:11;5.60;;;2.78;;
48522;SDS011;34315;50.150;11.070;2023-01-09T06:59:11;6.07;;;2.63;;
48522;SDS011;34315;50.150;11.070;2023-01-09T07:04:12;4.35;;;1.73;;
48522;SDS011;34315;50.150;11.070;2023-01-09T07:09:12;2.78;;;1.25;;
48522;SDS011;34315;50.150;11.070;2023-01-09T07:14:13;1.30;;;0.70;;
48522;SDS011;34315;50.150;11.070;2023-01-09T07:19:13;1.55;;;0.90;;
48522;SDS011;34315;50.150;11.070;2023-01-09T07:24:14;2.47;;;1.60;;
48522;SDS011;34315;50.150;11.070;2023-01-09T07:29:14;1.25;;;1.00;;
48522;SDS011;34315;50.150;11.070;2023-01-09T07:34:14;4.25;;;1.60;;
48522;SDS011;34315;50.150;11.070;2023-01-09T07:39:15;2.28;;;1.20;;
48522;SDS011;34315;50.150;11.070;2023-01-09T07:44:15;2.78;;;1.50;;
48522;SDS011;34315;50.150;11.070;2023-01-09T07:49:16;3.50;;;1.38;;
48522;SDS011;34315;50.150;11.070;2023-01-09T07:54:16;0.63;;;0.63;;
48522;SDS011;34315;50.150;11.070;2023-01-09T07:59:16;2.45;;;1.00;;
48522;SDS011;34315;50.150;11.070;2023-01-09T08:04:17;1.25;;;0.93;;
48522;SDS011;34315;50.150;11.070;2023-01-09T08:09:17;3.95;;;1.00;;
48522;SDS011;34315;50.150;11.070;2023-01-09T08:14:18;1.50;;;0.95;;
48522;SDS011;34315;50.150;11.070;2023-01-09T08:19:18;3.47;;;1.25;;
48522;SDS011;34315;50.150;11.070;2023-01-09T08:24:19;1.63;;;0.75;;
48522;SDS011;34315;50.150;11.070;2023-01-09T08:29:19;1.77;;;0.80;;
48522;SDS011;34315;50.150;11.070;2023-01-09T08:34:20;1.67;;;0.75;;
48522;SDS011;34315;50.150;11.070;2023-01-09T08:39:20;1.45;;;0.80;;
48522;SDS011;34315;50.150;11.070;2023-01-09T08:44:21;1.02;;;0.75;;
48522;SDS011;34315;50.150;11.070;2023-01-09T08:49:40;3.65;;;1.30;;
48522;SDS011;34315;50.150;11.070;2023-01-09T08:54:40;1.73;;;0.70;;
48522;SDS011;34315;50.150;11.070;2023-01-09T08:59:40;1.95;;;0.80;;
48522;SDS011;34315;50.150;11.070;2023-01-09T09:04:41;1.38;;;1.00;;
48522;SDS011;34315;50.150;11.070;2023-01-09T09:09:41;2.17;;;1.00;;
48522;SDS011;34315;50.150;11.070;2023-01-09T09:14:42;2.28;;;0.90;;
48522;SDS011;34315;50.150;11.070;2023-01-09T09:20:00;2.85;;;1.00;;
48522;SDS011;34315;50.150;11.070;2023-01-09T09:25:01;4.60;;;1.20;;
48522;SDS011;34315;50.150;11.070;2023-01-09T09:30:03;7.82;;;0.98;;
48522;SDS011;34315;50.150;11.070;2023-01-09T09:35:04;1.88;;;0.95;;
48522;SDS011;34315;50.150;11.070;2023-01-09T09:40:05;2.83;;;1.17;;
48522;SDS011;34315;50.150;11.070;2023-01-09T09:45:29;1.77;;;1.10;;
48522;SDS011;34315;50.150;11.070;2023-01-09T09:56:03;2.65;;;1.35;;
48522;SDS011;34315;50.150;11.070;2023-01-09T10:01:05;3.40;;;1.33;;
48522;SDS011;34315;50.150;11.070;2023-01-09T10:06:07;4.10;;;1.58;;
48522;SDS011;34315;50.150;11.070;2023-01-09T10:11:23;2.50;;;1.00;;
48522;SDS011;34315;50.150;11.070;2023-01-09T10:22:01;3.10;;;1.00;;
48522;SDS011;34315;50.150;11.070;2023-01-09T10:27:20;4.10;;;1.10;;
48522;SDS011;34315;50.150;11.070;2023-01-09T10:32:33;4.03;;;1.00;;
48522;SDS011;34315;50.150;11.070;2023-01-09T10:37:41;3.47;;;1.20;;
48522;SDS011;34315;50.150;11.070;2023-01-09T10:42:53;5.43;;;1.00;;
48522;SDS011;34315;50.150;11.070;2023-01-09T10:48:04;3.45;;;1.05;;
48522;SDS011;34315;50.150;11.070;2023-01-09T10:53:24;1.88;;;0.90;;
48522;SDS011;34315;50.150;11.070;2023-01-09T10:58:26;4.18;;;1.10;;
48522;SDS011;34315;50.150;11.070;2023-01-09T11:03:28;1.92;;;0.93;;
48522;SDS011;34315;50.150;11.070;2023-01-09T11:13:40;3.80;;;1.27;;
48522;SDS011;34315;50.150;11.070;2023-01-09T11:18:48;3.47;;;0.90;;
48522;SDS011;34315;50.150;11.070;2023-01-09T11:23:49;3.17;;;1.20;;
48522;SDS011;34315;50.150;11.070;2023-01-09T11:34:15;4.68;;;1.50;;
48522;SDS011;34315;50.150;11.070;2023-01-09T11:39:24;2.88;;;0.90;;
48522;SDS011;34315;50.150;11.070;2023-01-09T11:44:25;3.95;;;1.40;;
48522;SDS011;34315;50.150;11.070;2023-01-09T11:49:27;5.45;;;1.10;;
48522;SDS011;34315;50.150;11.070;2023-01-09T11:54:30;5.18;;;1.45;;
48522;SDS011;34315;50.150;11.070;2023-01-09T11:59:31;2.70;;;1.17;;
48522;SDS011;34315;50.150;11.070;2023-01-09T12:09:51;3.65;;;0.90;;
48522;SDS011;34315;50.150;11.070;2023-01-09T12:20:21;4.35;;;0.98;;
48522;SDS011;34315;50.150;11.070;2023-01-09T12:25:35;3.60;;;1.60;;
48522;SDS011;34315;50.150;11.070;2023-01-09T12:36:08;2.70;;;1.05;;
48522;SDS011;34315;50.150;11.070;2023-01-09T12:41:17;2.72;;;1.00;;
48522;SDS011;34315;50.150;11.070;2023-01-09T12:46:24;1.92;;;0.98;;
48522;SDS011;34315;50.150;11.070;2023-01-09T12:57:01;1.83;;;0.82;;
48522;SDS011;34315;50.150;11.070;2023-01-09T13:07:29;3.63;;;1.27;;
48522;SDS011;34315;50.150;11.070;2023-01-09T13:12:32;4.05;;;1.10;;
48522;SDS011;34315;50.150;11.070;2023-01-09T13:17:42;4.28;;;1.20;;
48522;SDS011;34315;50.150;11.070;2023-01-09T13:22:46;2.20;;;0.95;;
48522;SDS011;34315;50.150;11.070;2023-01-09T13:27:54;3.28;;;1.10;;
48522;SDS011;34315;50.150;11.070;2023-01-09T13:38:33;5.47;;;1.65;;
48522;SDS011;34315;50.150;11.070;2023-01-09T13:43:51;2.58;;;1.02;;
48522;SDS011;34315;50.150;11.070;2023-01-09T13:48:53;3.67;;;1.42;;
48522;SDS011;34315;50.150;11.070;2023-01-09T13:53:53;2.72;;;1.40;;
48522;SDS011;34315;50.150;11.070;2023-01-09T14:09:19;4.25;;;1.30;;
48522;SDS011;34315;50.150;11.070;2023-01-09T14:14:26;5.22;;;2.10;;
48522;SDS011;34315;50.150;11.070;2023-01-09T14:24:40;6.82;;;2.67;;
48522;SDS011;34315;50.150;11.070;2023-01-09T14:29:43;8.40;;;2.60;;
48522;SDS011;34315;50.150;11.070;2023-01-09T14:34:44;8.27;;;2.72;;
48522;SDS011;34315;50.150;11.070;2023-01-09T14:39:45;5.38;;;2.03;;
48522;SDS011;34315;50.150;11.070;2023-01-09T14:44:48;6.05;;;1.83;;
48522;SDS011;34315;50.150;11.070;2023-01-09T14:49:54;4.07;;;1.83;;
48522;SDS011;34315;50.150;11.070;2023-01-09T14:54:58;4.65;;;1.98;;
48522;SDS011;34315;50.150;11.070;2023-01-09T15:00:05;7.22;;;1.92;;
48522;SDS011;34315;50.150;11.070;2023-01-09T15:05:21;8.80;;;2.17;;
48522;SDS011;34315;50.150;11.070;2023-01-09T15:10:25;3.92;;;2.28;;
48522;SDS011;34315;50.150;11.070;2023-01-09T15:15:27;5.00;;;1.98;;
48522;SDS011;34315;50.150;11.070;2023-01-09T15:20:28;3.45;;;1.70;;
48522;SDS011;34315;50.150;11.070;2023-01-09T15:25:31;5.38;;;1.30;;
48522;SDS011;34315;50.150;11.070;2023-01-09T15:30:33;5.65;;;1.40;;
48522;SDS011;34315;50.150;11.070;2023-01-09T15:35:35;4.63;;;1.58;;
48522;SDS011;34315;50.150;11.070;2023-01-09T15:40:40;4.07;;;1.50;;
48522;SDS011;34315;50.150;11.070;2023-01-09T15:45:41;4.32;;;1.58;;
48522;SDS011;34315;50.150;11.070;2023-01-09T15:50:43;2.00;;;1.30;;
48522;SDS011;34315;50.150;11.070;2023-01-09T15:55:45;4.90;;;1.83;;
48522;SDS011;34315;50.150;11.070;2023-01-09T16:00:51;3.78;;;1.50;;
48522;SDS011;34315;50.150;11.070;2023-01-09T16:05:55;2.97;;;1.60;;
48522;SDS011;34315;50.150;11.070;2023-01-09T16:11:08;3.85;;;1.52;;
48522;SDS011;34315;50.150;11.070;2023-01-09T16:16:09;2.25;;;1.00;;
48522;SDS011;34315;50.150;11.070;2023-01-09T16:21:29;2.63;;;1.27;;
48522;SDS011;34315;50.150;11.070;2023-01-09T16:26:33;4.65;;;1.50;;
48522;SDS011;34315;50.150;11.070;2023-01-09T16:31:34;1.23;;;0.93;;
48522;SDS011;34315;50.150;11.070;2023-01-09T16:36:35;3.38;;;1.60;;
48522;SDS011;34315;50.150;11.070;2023-01-09T16:41:35;3.25;;;0.95;;
48522;SDS011;34315;50.150;11.070;2023-01-09T16:46:59;3.85;;;1.35;;
48522;SDS011;34315;50.150;11.070;2023-01-09T16:51:59;4.07;;;1.60;;
48522;SDS011;34315;50.150;11.070;2023-01-09T16:57:02;5.00;;;1.67;;
48522;SDS011;34315;50.150;11.070;2023-01-09T17:02:04;6.20;;;1.80;;
48522;SDS011;34315;50.150;11.070;2023-01-09T17:07:16;6.55;;;1.92;;
48522;SDS011;34315;50.150;11.070;2023-01-09T17:12:18;11.45;;;4.30;;
48522;SDS011;34315;50.150;11.070;2023-01-09T17:17:20;8.50;;;3.90;;
48522;SDS011;34315;50.150;11.070;2023-01-09T17:22:21;7.15;;;2.88;;
48522;SDS011;34315;50.150;11.070;2023-01-09T17:27:23;10.68;;;5.07;;
48522;SDS011;34315;50.150;11.070;2023-01-09T17:32:45;6.30;;;3.10;;
48522;SDS011;34315;50.150;11.070;2023-01-09T17:37:46;8.32;;;3.33;;
48522;SDS011;34315;50.150;11.070;2023-01-09T17:42:46;7.07;;;3.20;;
48522;SDS011;34315;50.150;11.070;2023-01-09T17:47:46;7.05;;;2.92;;
48522;SDS011;34315;50.150;11.070;2023-01-09T17:52:47;6.95;;;3.03;;
48522;SDS011;34315;50.150;11.070;2023-01-09T17:57:48;6.07;;;2.10;;
48522;SDS011;34315;50.150;11.070;2023-01-09T18:02:48;4.85;;;1.95;;
48522;SDS011;34315;50.150;11.070;2023-01-09T18:07:48;5.85;;;2.00;;
48522;SDS011;34315;50.150;11.070;2023-01-09T18:12:50;4.35;;;2.28;;
48522;SDS011;34315;50.150;11.070;2023-01-09T18:17:51;5.00;;;2.63;;
48522;SDS011;34315;50.150;11.070;2023-01-09T18:22:51;5.13;;;2.05;;
48522;SDS011;34315;50.150;11.070;2023-01-09T18:27:51;6.38;;;2.03;;
48522;SDS011;34315;50.150;11.070;2023-01-09T18:32:52;4.75;;;2.28;;
48522;SDS011;34315;50.150;11.070;2023-01-09T18:37:52;5.55;;;2.20;;
48522;SDS011;34315;50.150;11.070;2023-01-09T18:42:53;11.82;;;3.13;;
48522;SDS011;34315;50.150;11.070;2023-01-09T18:47:54;4.97;;;2.22;;
48522;SDS011;34315;50.150;11.070;2023-01-09T18:52:54;4.13;;;2.08;;
48522;SDS011;34315;50.150;11.070;2023-01-09T18:57:55;6.03;;;2.30;;
48522;SDS011;34315;50.150;11.070;2023-01-09T19:02:55;5.35;;;2.22;;
48522;SDS011;34315;50.150;11.070;2023-01-09T19:07:56;5.82;;;2.60;;
48522;SDS011;34315;50.150;11.070;2023-01-09T19:12:56;5.70;;;3.22;;
48522;SDS011;34315;50.150;11.070;2023-01-09T19:17:56;7.60;;;3.45;;
48522;SDS011;34315;50.150;11.070;2023-01-09T19:22:57;7.80;;;3.13;;
48522;SDS011;34315;50.150;11.070;2023-01-09T19:27:58;4.53;;;2.95;;
48522;SDS011;34315;50.150;11.070;2023-01-09T19:32:59;7.13;;;3.17;;
48522;SDS011;34315;50.150;11.070;2023-01-09T19:37:59;6.50;;;2.70;;
48522;SDS011;34315;50.150;11.070;2023-01-09T19:43:00;6.85;;;3.05;;
48522;SDS011;34315;50.150;11.070;2023-01-09T19:48:00;5.75;;;2.63;;
48522;SDS011;34315;50.150;11.070;2023-01-09T19:53:01;5.03;;;2.60;;
48522;SDS011;34315;50.150;11.070;2023-01-09T19:58:01;5.57;;;2.33;;
48522;SDS011;34315;50.150;11.070;2023-01-09T20:03:02;6.05;;;2.85;;
48522;SDS011;34315;50.150;11.070;2023-01-09T20:08:03;5.43;;;2.60;;
48522;SDS011;34315;50.150;11.070;2023-01-09T20:13:05;6.80;;;2.63;;
48522;SDS011;34315;50.150;11.070;2023-01-09T20:18:05;6.13;;;2.30;;
48522;SDS011;34315;50.150;11.070;2023-01-09T20:23:06;6.13;;;2.38;;
48522;SDS011;34315;50.150;11.070;2023-01-09T20:28:09;8.02;;;3.38;;
48522;SDS011;34315;50.150;11.070;2023-01-09T20:33:10;6.07;;;2.47;;
48522;SDS011;34315;50.150;11.070;2023-01-09T20:38:10;6.80;;;2.80;;
48522;SDS011;34315;50.150;11.070;2023-01-09T20:43:11;3.25;;;1.88;;
48522;SDS011;34315;50.150;11.070;2023-01-09T20:48:12;3.80;;;1.63;;
48522;SDS011;34315;50.150;11.070;2023-01-09T20:53:13;2.97;;;1.60;;
48522;SDS011;34315;50.150;11.070;2023-01-09T20:58:14;1.85;;;1.30;;
48522;SDS011;34315;50.150;11.070;2023-01-09T21:03:14;3.40;;;1.10;;
48522;SDS011;34315;50.150;11.070;2023-01-09T21:08:15;4.32;;;1.27;;
48522;SDS011;34315;50.150;11.070;2023-01-09T21:13:16;1.42;;;1.05;;
48522;SDS011;34315;50.150;11.070;2023-01-09T21:18:16;1.80;;;1.20;;
48522;SDS011;34315;50.150;11.070;2023-01-09T21:23:17;3.58;;;1.30;;
48522;SDS011;34315;50.150;11.070;2023-01-09T21:28:17;1.75;;;1.08;;
48522;SDS011;34315;50.150;11.070;2023-01-09T21:33:18;1.42;;;1.10;;
48522;SDS011;34315;50.150;11.070;2023-01-09T21:38:23;1.40;;;0.90;;
48522;SDS011;34315;50.150;11.070;2023-01-09T21:43:25;1.20;;;0.80;;
48522;SDS011;34315;50.150;11.070;2023-01-09T21:48:45;3.28;;;1.50;;
48522;SDS011;34315;50.150;11.070;2023-01-09T21:53:45;4.28;;;2.00;;
48522;SDS011;34315;50.150;11.070;2023-01-09T21:58:46;3.53;;;1.50;;
48522;SDS011;34315;50.150;11.070;2023-01-09T22:03:48;7.22;;;2.80;;
48522;SDS011;34315;50.150;11.070;2023-01-09T22:08:48;7.53;;;2.80;;
48522;SDS011;34315;50.150;11.070;2023-01-09T22:13:49;4.75;;;2.10;;
48522;SDS011;34315;50.150;11.070;2023-01-09T22:18:50;3.72;;;2.10;;
48522;SDS011;34315;50.150;11.070;2023-01-09T22:23:50;5.00;;;1.67;;
48522;SDS011;34315;50.150;11.070;2023-01-09T22:28:50;3.33;;;1.30;;
48522;SDS011;34315;50.150;11.070;2023-01-09T22:33:51;3.17;;;1.15;;
48522;SDS011;34315;50.150;11.070;2023-01-09T22:38:53;1.58;;;1.08;;
48522;SDS011;34315;50.150;11.070;2023-01-09T22:43:55;1.98;;;1.08;;
48522;SDS011;34315;50.150;11.070;2023-01-09T22:48:55;3.80;;;1.80;;
48522;SDS011;34315;50.150;11.070;2023-01-09T22:53:56;3.60;;;1.90;;
48522;SDS011;34315;50.150;11.070;2023-01-09T22:58:56;3.30;;;1.75;;
48522;SDS011;34315;50.150;11.070;2023-01-09T23:04:00;2.17;;;1.33;;
48522;SDS011;34315;50.150;11.070;2023-01-09T23:09:02;3.30;;;1.52;;
48522;SDS011;34315;50.150;11.070;2023-01-09T23:14:04;3.33;;;1.60;;
48522;SDS011;34315;50.150;11.070;2023-01-09T23:19:04;3.08;;;1.60;;
48522;SDS011;34315;50.150;11.070;2023-01-09T23:24:06;4.72;;;2.50;;
48522;SDS011;34315;50.150;11.070;2023-01-09T23:29:07;5.70;;;2.20;;
48522;SDS011;34315;50.150;11.070;2023-01-09T23:34:12;6.25;;;2.47;;
48522;SDS011;34315;50.150;11.070;2023-01-09T23:39:14;5.20;;;2.33;;
48522;SDS011;34315;50.150;11.070;2023-01-09T23:44:14;4.10;;;2.28;;
48522;SDS011;34315;50.150;11.070;2023-01-09T23:49:14;4.63;;;2.30;;
48522;SDS011;34315;50.150;11.070;2023-01-09T23:54:15;6.38;;;2.75;;
48522;SDS011;34315;50.150;11.070;2023-01-09T23:59:16;5.65;;;2.55;;
